Arcadia, Oregon
Current Conditions -  °F | °C
As of 3:53 AM on Tuesday 21 Oct 2014 (Local Time) from KONO Reporting Station
Overcast Overcast  
Wind Chill: 51°   Ceiling: 8500
Heat Index: 51°   Visibility: 10mi
Dew Point: 46°   Wind: 5mph
Humidity: 83%   Direction: 100°E
Pressure: 29.88"   Gusts: NA
Location:  43.754°N, 117.202°W
Report Text: KONO 210953Z AUTO 10004KT 10SM SCT070 OVC085 11/08 A2988 RMK AO2 RAE20 SLP113 P0001 T01060078
Loading
Personal Weather Stations






























Interactive Weather Map
Tropical Storm Tracking
New forecast layout! Learn more

10-Day Weather Forecast

Advertisements
Track Severe Weather on mobile